createdAt,value
2016-07-28T00:00:00.203Z,1006.15
2016-07-28T00:01:00.185Z,1006.14
2016-07-28T00:02:00.169Z,1006.17
2016-07-28T00:03:00.151Z,1006.15
2016-07-28T00:04:00.134Z,1006.16
2016-07-28T00:05:00.118Z,1006.17
2016-07-28T00:06:00.100Z,1006.17
2016-07-28T00:07:00.085Z,1006.15
2016-07-28T00:08:00.066Z,1006.15
2016-07-28T00:09:00.049Z,1006.13
2016-07-28T00:10:00.032Z,1006.16
2016-07-28T00:11:00.015Z,1006.15
2016-07-28T00:12:00.050Z,1006.16
2016-07-28T00:12:59.982Z,1006.13
2016-07-28T00:13:59.965Z,1006.11
2016-07-28T00:14:59.947Z,1006.12
2016-07-28T00:15:59.931Z,1006.1
2016-07-28T00:16:59.914Z,1006.09
2016-07-28T00:17:59.896Z,1006.09
2016-07-28T00:18:59.880Z,1006.09
2016-07-28T00:20:59.845Z,1006.07
2016-07-28T00:21:59.827Z,1006.12
2016-07-28T00:22:59.810Z,1006.12
2016-07-28T00:23:59.795Z,1006.09
2016-07-28T00:24:59.778Z,1006.12
2016-07-28T00:25:59.759Z,1006.08
2016-07-28T00:26:59.743Z,1006.05
2016-07-28T00:27:59.726Z,1006.09
2016-07-28T00:28:59.709Z,1006.04
2016-07-28T00:29:59.691Z,1006.09
2016-07-28T00:30:59.675Z,1006.11
2016-07-28T00:31:59.657Z,1006.1
2016-07-28T00:32:59.640Z,1006.07
2016-07-28T00:33:59.622Z,1006.05
2016-07-28T00:34:59.606Z,1006.08
2016-07-28T00:35:59.589Z,1006.09
2016-07-28T00:36:59.573Z,1006.07
2016-07-28T00:37:59.556Z,1006.08
2016-07-28T00:38:59.538Z,1006.05
2016-07-28T00:39:59.522Z,1006.07
2016-07-28T00:40:59.503Z,1006.1
2016-07-28T00:41:59.488Z,1006.07
2016-07-28T00:42:59.470Z,1006.06
2016-07-28T00:43:59.453Z,1006.1
2016-07-28T00:44:59.437Z,1006.11
2016-07-28T00:45:59.419Z,1006.08
2016-07-28T00:46:59.403Z,1006.04
2016-07-28T00:47:59.385Z,1006.07
2016-07-28T00:48:59.369Z,1006.07
2016-07-28T00:49:59.351Z,1006.04
2016-07-28T00:50:59.334Z,1006.04
2016-07-28T00:51:59.317Z,1006.09
2016-07-28T00:52:59.300Z,1006.05
2016-07-28T00:53:59.283Z,1006.07
2016-07-28T00:54:59.266Z,1006
2016-07-28T00:55:59.248Z,1006.02
2016-07-28T00:56:59.231Z,1005.97
2016-07-28T00:57:59.216Z,1006.01
2016-07-28T00:58:59.198Z,1006.02
2016-07-28T00:59:59.180Z,1005.96
2016-07-28T01:00:59.164Z,1005.99
2016-07-28T01:01:59.150Z,1005.96
2016-07-28T01:02:59.128Z,1005.99
2016-07-28T01:03:59.112Z,1005.95
2016-07-28T01:04:59.095Z,1006.01
2016-07-28T01:05:59.077Z,1005.95
2016-07-28T01:06:59.061Z,1005.94
2016-07-28T01:07:59.045Z,1005.95
2016-07-28T01:08:59.028Z,1005.97
2016-07-28T01:09:59.009Z,1005.96
2016-07-28T01:10:58.992Z,1005.99
2016-07-28T01:11:58.976Z,1005.97
2016-07-28T01:12:58.960Z,1005.95
2016-07-28T01:13:58.945Z,1005.99
2016-07-28T01:14:58.925Z,1005.97
2016-07-28T01:15:58.907Z,1005.97
2016-07-28T01:16:58.889Z,1005.97
2016-07-28T01:17:58.873Z,1005.95
2016-07-28T01:18:58.856Z,1005.99
2016-07-28T01:19:58.838Z,1005.95
2016-07-28T01:20:58.821Z,1005.98
2016-07-28T01:21:58.802Z,1006.02
2016-07-28T01:22:58.785Z,1005.98
2016-07-28T01:23:58.768Z,1006.02
2016-07-28T01:24:58.749Z,1006.03
2016-07-28T01:25:58.733Z,1005.99
2016-07-28T01:26:58.715Z,1006
2016-07-28T01:27:58.697Z,1005.99
2016-07-28T01:28:58.680Z,1005.97
2016-07-28T01:29:58.662Z,1005.96
2016-07-28T01:30:58.645Z,1005.97
2016-07-28T01:31:58.627Z,1005.99
2016-07-28T01:32:58.610Z,1005.98
2016-07-28T01:33:58.594Z,1006.04
2016-07-28T01:34:58.576Z,1006.03
2016-07-28T01:35:58.611Z,1006.04
2016-07-28T01:36:58.541Z,1006.04
2016-07-28T01:37:58.523Z,1006.06
2016-07-28T01:38:58.504Z,1006.02
2016-07-28T01:39:58.486Z,1006.07
2016-07-28T01:40:58.470Z,1006.07
2016-07-28T01:41:58.453Z,1006.12
2016-07-28T01:42:58.434Z,1006.1
2016-07-28T01:43:58.417Z,1006.09
2016-07-28T01:44:58.399Z,1006.07
2016-07-28T01:45:58.383Z,1006.02
2016-07-28T01:46:58.363Z,1006.02
2016-07-28T01:47:58.348Z,1006.01
2016-07-28T01:48:58.329Z,1006
2016-07-28T01:49:58.310Z,1005.96
2016-07-28T01:50:58.294Z,1005.94
2016-07-28T01:51:58.276Z,1005.92
2016-07-28T01:52:58.259Z,1005.93
2016-07-28T01:53:58.239Z,1005.92
2016-07-28T01:54:58.221Z,1005.93
2016-07-28T01:55:58.205Z,1005.9
2016-07-28T01:56:58.185Z,1005.89
2016-07-28T01:57:58.168Z,1005.89
2016-07-28T01:58:58.150Z,1005.85
2016-07-28T01:59:58.133Z,1005.82
2016-07-28T02:00:58.115Z,1005.8
2016-07-28T02:01:58.097Z,1005.79
2016-07-28T02:02:58.081Z,1005.85
2016-07-28T02:03:58.062Z,1005.82
2016-07-28T02:04:58.044Z,1005.84
2016-07-28T02:05:58.025Z,1005.87
2016-07-28T02:06:58.008Z,1005.83
2016-07-28T02:07:57.989Z,1005.84
2016-07-28T02:08:57.971Z,1005.79
2016-07-28T02:09:57.955Z,1005.8
2016-07-28T02:10:57.937Z,1005.79
2016-07-28T02:11:57.919Z,1005.8
2016-07-28T02:12:57.901Z,1005.78
2016-07-28T02:13:57.883Z,1005.81
2016-07-28T02:14:57.865Z,1005.83
2016-07-28T02:15:57.849Z,1005.79
2016-07-28T02:16:57.835Z,1005.81
2016-07-28T02:17:57.810Z,1005.83
2016-07-28T02:18:57.793Z,1005.86
2016-07-28T02:19:57.775Z,1005.82
2016-07-28T02:20:57.759Z,1005.84
2016-07-28T02:21:57.740Z,1005.84
2016-07-28T02:22:57.721Z,1005.85
2016-07-28T02:23:57.703Z,1005.81
2016-07-28T02:24:57.685Z,1005.8
2016-07-28T02:25:57.668Z,1005.76
2016-07-28T02:26:57.649Z,1005.78
2016-07-28T02:27:57.641Z,1005.73
2016-07-28T02:28:57.614Z,1005.74
2016-07-28T02:29:57.597Z,1005.8
2016-07-28T02:30:57.577Z,1005.85
2016-07-28T02:31:57.560Z,1005.78
2016-07-28T02:32:57.543Z,1005.85
2016-07-28T02:33:57.522Z,1005.86
2016-07-28T02:34:57.506Z,1005.84
2016-07-28T02:35:57.487Z,1005.85
2016-07-28T02:36:57.470Z,1005.83
2016-07-28T02:37:57.452Z,1005.77
2016-07-28T02:38:57.433Z,1005.8
2016-07-28T02:39:57.414Z,1005.75
2016-07-28T02:40:57.396Z,1005.75
2016-07-28T02:41:57.379Z,1005.76
2016-07-28T02:42:57.360Z,1005.71
2016-07-28T02:43:57.343Z,1005.68
2016-07-28T02:44:57.324Z,1005.71
2016-07-28T02:45:57.305Z,1005.65
2016-07-28T02:46:57.286Z,1005.67
2016-07-28T02:47:57.267Z,1005.62
2016-07-28T02:48:57.249Z,1005.57
2016-07-28T02:49:57.232Z,1005.58
2016-07-28T02:50:57.213Z,1005.59
2016-07-28T02:51:57.193Z,1005.56
2016-07-28T02:52:57.176Z,1005.57
2016-07-28T02:53:57.158Z,1005.59
2016-07-28T02:54:57.139Z,1005.61
2016-07-28T02:55:57.121Z,1005.62
2016-07-28T02:56:57.102Z,1005.61
2016-07-28T02:57:57.085Z,1005.65
2016-07-28T02:58:57.065Z,1005.65
2016-07-28T02:59:57.047Z,1005.65
2016-07-28T03:00:57.028Z,1005.66
2016-07-28T03:01:57.009Z,1005.65
2016-07-28T03:02:56.991Z,1005.67
2016-07-28T03:03:56.979Z,1005.65
2016-07-28T03:04:56.956Z,1005.64
2016-07-28T03:05:56.936Z,1005.69
2016-07-28T03:06:56.918Z,1005.63
2016-07-28T03:07:56.899Z,1005.65
2016-07-28T03:08:56.881Z,1005.66
2016-07-28T03:09:56.864Z,1005.65
2016-07-28T03:10:56.844Z,1005.63
2016-07-28T03:12:56.807Z,1005.6
2016-07-28T03:13:56.789Z,1005.55
2016-07-28T03:14:56.771Z,1005.63
2016-07-28T03:15:56.752Z,1005.6
2016-07-28T03:16:56.735Z,1005.61
2016-07-28T03:17:56.715Z,1005.61
2016-07-28T03:18:56.699Z,1005.59
2016-07-28T03:19:56.679Z,1005.61
2016-07-28T03:20:56.663Z,1005.61
2016-07-28T03:21:56.654Z,1005.55
2016-07-28T03:22:56.626Z,1005.56
2016-07-28T03:23:56.608Z,1005.58
2016-07-28T03:24:56.589Z,1005.58
2016-07-28T03:25:56.571Z,1005.58
2016-07-28T03:27:56.535Z,1005.57
2016-07-28T03:28:56.516Z,1005.56
2016-07-28T03:29:56.498Z,1005.52
2016-07-28T03:30:56.479Z,1005.5
2016-07-28T03:31:56.461Z,1005.48
2016-07-28T03:32:56.444Z,1005.47
2016-07-28T03:33:56.424Z,1005.47
2016-07-28T03:34:56.409Z,1005.47
2016-07-28T03:35:56.388Z,1005.47
2016-07-28T03:36:56.370Z,1005.44
2016-07-28T03:37:56.352Z,1005.45
2016-07-28T03:38:56.335Z,1005.45
2016-07-28T03:39:56.315Z,1005.47
2016-07-28T03:40:56.298Z,1005.44
2016-07-28T03:41:56.279Z,1005.48
2016-07-28T03:42:56.261Z,1005.47
2016-07-28T03:43:56.242Z,1005.45
2016-07-28T03:44:56.225Z,1005.48
2016-07-28T03:45:56.207Z,1005.46
2016-07-28T03:46:56.187Z,1005.43
2016-07-28T03:47:56.170Z,1005.39
2016-07-28T03:48:56.152Z,1005.41
2016-07-28T03:49:56.135Z,1005.35
2016-07-28T03:50:56.114Z,1005.35
2016-07-28T03:51:56.097Z,1005.39
2016-07-28T03:52:56.078Z,1005.35
2016-07-28T03:53:56.060Z,1005.36
2016-07-28T03:54:56.043Z,1005.32
2016-07-28T03:55:56.023Z,1005.4
2016-07-28T03:56:56.006Z,1005.37
2016-07-28T03:57:55.986Z,1005.4
2016-07-28T03:58:55.969Z,1005.39
2016-07-28T03:59:55.952Z,1005.36
2016-07-28T04:00:55.933Z,1005.37
2016-07-28T04:01:55.914Z,1005.39
2016-07-28T04:02:55.896Z,1005.33
2016-07-28T04:03:55.877Z,1005.35
2016-07-28T04:04:55.859Z,1005.34
2016-07-28T04:05:55.841Z,1005.34
2016-07-28T04:06:55.822Z,1005.33
2016-07-28T04:07:55.808Z,1005.31
2016-07-28T04:08:55.784Z,1005.32
2016-07-28T04:09:55.767Z,1005.34
2016-07-28T04:10:55.749Z,1005.35
2016-07-28T04:11:55.732Z,1005.33
2016-07-28T04:12:55.713Z,1005.34
2016-07-28T04:13:55.694Z,1005.4
2016-07-28T04:14:55.675Z,1005.37
2016-07-28T04:15:55.656Z,1005.36
2016-07-28T04:16:55.639Z,1005.35
2016-07-28T04:17:55.620Z,1005.31
2016-07-28T04:18:55.603Z,1005.34
2016-07-28T04:19:55.581Z,1005.29
2016-07-28T04:20:55.565Z,1005.26
2016-07-28T04:21:55.546Z,1005.21
2016-07-28T04:22:55.529Z,1005.24
2016-07-28T04:23:55.508Z,1005.25
2016-07-28T04:24:55.491Z,1005.22
2016-07-28T04:25:55.472Z,1005.23
2016-07-28T04:26:55.453Z,1005.21
2016-07-28T04:27:55.436Z,1005.19
2016-07-28T04:28:55.417Z,1005.23
2016-07-28T04:29:55.399Z,1005.23
2016-07-28T04:30:55.379Z,1005.22
2016-07-28T04:31:55.362Z,1005.18
2016-07-28T04:32:55.344Z,1005.25
2016-07-28T04:33:55.325Z,1005.27
2016-07-28T04:34:55.307Z,1005.25
2016-07-28T04:35:55.289Z,1005.25
2016-07-28T04:36:55.271Z,1005.24
2016-07-28T04:37:55.252Z,1005.24
2016-07-28T04:38:55.235Z,1005.25
2016-07-28T04:39:55.215Z,1005.24
2016-07-28T04:40:55.197Z,1005.25
2016-07-28T04:41:55.179Z,1005.25
2016-07-28T04:42:55.160Z,1005.21
2016-07-28T04:43:55.142Z,1005.2
2016-07-28T04:44:55.123Z,1005.24
2016-07-28T04:45:55.105Z,1005.23
2016-07-28T04:46:55.087Z,1005.24
2016-07-28T04:47:55.069Z,1005.22
2016-07-28T04:48:55.051Z,1005.21
2016-07-28T04:49:55.033Z,1005.2
2016-07-28T04:50:55.014Z,1005.16
2016-07-28T04:51:54.997Z,1005.14
2016-07-28T04:52:55.037Z,1005.18
2016-07-28T04:53:54.961Z,1005.18
2016-07-28T04:54:54.945Z,1005.18
2016-07-28T04:55:54.925Z,1005.19
2016-07-28T04:56:54.931Z,1005.2
2016-07-28T04:57:54.889Z,1005.18
2016-07-28T04:58:54.870Z,1005.19
2016-07-28T04:59:54.852Z,1005.2
2016-07-28T05:00:54.876Z,1005.2
2016-07-28T05:01:54.843Z,1005.17
2016-07-28T05:02:54.799Z,1005.2
2016-07-28T05:03:54.779Z,1005.19
2016-07-28T05:04:54.762Z,1005.19
2016-07-28T05:05:54.745Z,1005.19
2016-07-28T05:06:54.727Z,1005.21
2016-07-28T05:07:54.708Z,1005.21
2016-07-28T05:08:54.691Z,1005.24
2016-07-28T05:09:54.674Z,1005.22
2016-07-28T05:10:54.655Z,1005.25
2016-07-28T05:11:54.637Z,1005.23
2016-07-28T05:12:54.620Z,1005.24
2016-07-28T05:13:54.603Z,1005.29
2016-07-28T05:14:54.584Z,1005.27
2016-07-28T05:15:54.566Z,1005.25
2016-07-28T05:16:54.548Z,1005.26
2016-07-28T05:17:54.530Z,1005.29
2016-07-28T05:18:54.513Z,1005.26
2016-07-28T05:19:54.544Z,1005.24
2016-07-28T05:20:54.478Z,1005.25
2016-07-28T05:21:54.459Z,1005.26
2016-07-28T05:22:54.441Z,1005.27
2016-07-28T05:23:54.430Z,1005.23
2016-07-28T05:24:54.414Z,1005.25
2016-07-28T05:25:54.390Z,1005.21
2016-07-28T05:26:54.372Z,1005.23
2016-07-28T05:27:54.356Z,1005.24
2016-07-28T05:28:54.336Z,1005.25
2016-07-28T05:29:54.319Z,1005.18
2016-07-28T05:30:54.302Z,1005.21
2016-07-28T05:31:54.285Z,1005.15
2016-07-28T05:32:54.266Z,1005.21
2016-07-28T05:33:54.249Z,1005.22
2016-07-28T05:34:54.235Z,1005.19
2016-07-28T05:35:54.216Z,1005.19
2016-07-28T05:36:54.196Z,1005.17
2016-07-28T05:37:54.180Z,1005.18
2016-07-28T05:38:54.162Z,1005.2
2016-07-28T05:39:54.144Z,1005.21
2016-07-28T05:40:54.126Z,1005.22
2016-07-28T05:41:54.109Z,1005.24
2016-07-28T05:42:54.092Z,1005.27
2016-07-28T05:43:54.077Z,1005.26
2016-07-28T05:44:54.127Z,1005.33
2016-07-28T05:45:54.041Z,1005.26
2016-07-28T05:46:54.026Z,1005.32
2016-07-28T05:47:54.007Z,1005.3
2016-07-28T05:48:53.991Z,1005.28
2016-07-28T05:49:53.973Z,1005.27
2016-07-28T05:50:53.956Z,1005.28
2016-07-28T05:51:53.941Z,1005.26
2016-07-28T05:52:53.924Z,1005.26
2016-07-28T05:53:53.905Z,1005.23
2016-07-28T05:54:53.938Z,1005.2
2016-07-28T05:55:53.872Z,1005.25
2016-07-28T05:56:53.855Z,1005.24
2016-07-28T05:57:53.838Z,1005.22
2016-07-28T05:58:53.821Z,1005.22
2016-07-28T05:59:53.804Z,1005.24
2016-07-28T06:00:53.788Z,1005.24
2016-07-28T06:01:53.770Z,1005.22
2016-07-28T06:02:53.753Z,1005.24
2016-07-28T06:03:53.738Z,1005.21
2016-07-28T06:04:53.722Z,1005.21
2016-07-28T06:05:53.705Z,1005.2
2016-07-28T06:06:53.689Z,1005.2
2016-07-28T06:07:53.672Z,1005.2
2016-07-28T06:08:53.655Z,1005.19
2016-07-28T06:09:53.676Z,1005.16
2016-07-28T06:10:53.718Z,1005.17
2016-07-28T06:11:53.657Z,1005.16
2016-07-28T06:12:53.591Z,1005.19
2016-07-28T06:13:53.574Z,1005.21
2016-07-28T06:14:53.557Z,1005.22
2016-07-28T06:15:53.541Z,1005.22
2016-07-28T06:16:53.530Z,1005.2
2016-07-28T06:17:53.509Z,1005.2
2016-07-28T06:18:53.493Z,1005.19
2016-07-28T06:19:53.477Z,1005.23
2016-07-28T06:20:53.459Z,1005.24
2016-07-28T06:21:53.444Z,1005.19
2016-07-28T06:22:53.429Z,1005.2
2016-07-28T06:23:53.413Z,1005.2
2016-07-28T06:24:53.396Z,1005.23
2016-07-28T06:25:53.379Z,1005.23
2016-07-28T06:26:53.364Z,1005.23
2016-07-28T06:27:53.399Z,1005.24
2016-07-28T06:28:53.332Z,1005.22
2016-07-28T06:29:53.316Z,1005.26
2016-07-28T06:30:53.300Z,1005.22
2016-07-28T06:31:53.297Z,1005.22
2016-07-28T06:32:53.269Z,1005.23
2016-07-28T06:33:53.253Z,1005.22
2016-07-28T06:36:50.856Z,1005.16
2016-07-28T06:37:50.839Z,1005.14
2016-07-28T06:38:50.823Z,1005.16
2016-07-28T06:39:50.807Z,1005.14
2016-07-28T06:40:50.855Z,1005.15
2016-07-28T06:41:50.796Z,1005.12
2016-07-28T06:42:50.804Z,1005.14
2016-07-28T06:43:50.746Z,1005.12
2016-07-28T06:44:50.729Z,1005.12
2016-07-28T06:45:50.719Z,1005.1
2016-07-28T06:46:50.897Z,1005.13
2016-07-28T06:47:50.733Z,1005.1
2016-07-28T06:48:50.668Z,1005.13
2016-07-28T06:49:50.653Z,1005.12
2016-07-28T06:50:50.639Z,1005.12
2016-07-28T06:51:50.623Z,1005.11
2016-07-28T06:52:50.609Z,1005.08
2016-07-28T06:53:50.592Z,1005.09
2016-07-28T06:54:50.578Z,1005.04
2016-07-28T06:55:50.563Z,1005.08
2016-07-28T06:56:50.548Z,1005.13
2016-07-28T06:57:50.571Z,1005.08
2016-07-28T06:58:50.519Z,1005.14
2016-07-28T06:59:50.639Z,1005.1
2016-07-28T07:00:50.499Z,1005.12
2016-07-28T07:01:50.474Z,1005.11
2016-07-28T07:02:50.548Z,1005.12
2016-07-28T07:03:50.446Z,1005.11
2016-07-28T07:04:50.429Z,1005.14
2016-07-28T07:05:50.443Z,1005.1
2016-07-28T07:06:50.507Z,1005.11
2016-07-28T07:07:50.435Z,1005.09
2016-07-28T07:08:50.370Z,1005.09
2016-07-28T07:09:50.355Z,1005.14
2016-07-28T07:10:50.342Z,1005.11
2016-07-28T07:11:50.417Z,1005.1
2016-07-28T07:12:50.312Z,1005.15
2016-07-28T07:13:50.297Z,1005.16
2016-07-28T07:14:50.282Z,1005.14
2016-07-28T07:15:50.312Z,1005.14
2016-07-28T07:16:50.253Z,1005.14
2016-07-28T07:17:50.238Z,1005.15
2016-07-28T07:18:50.223Z,1005.16
2016-07-28T07:19:50.210Z,1005.16
2016-07-28T07:20:50.196Z,1005.17
2016-07-28T07:21:50.181Z,1005.21
2016-07-28T07:22:50.227Z,1005.19
2016-07-28T07:23:50.175Z,1005.25
2016-07-28T07:24:50.218Z,1005.22
2016-07-28T07:25:50.229Z,1005.24
2016-07-28T07:26:50.324Z,1005.26
2016-07-28T07:28:50.268Z,1005.21
2016-07-28T07:29:50.317Z,1005.25
2016-07-28T07:30:50.287Z,1005.21
2016-07-28T07:31:50.307Z,1005.23
2016-07-28T07:32:50.269Z,1005.24
2016-07-28T07:33:50.310Z,1005.26
2016-07-28T07:34:50.151Z,1005.24
2016-07-28T07:35:50.133Z,1005.25
2016-07-28T07:36:49.968Z,1005.26
2016-07-28T07:37:50.103Z,1005.26
2016-07-28T07:38:50.178Z,1005.26
2016-07-28T07:39:49.925Z,1005.23
2016-07-28T07:40:49.960Z,1005.29
2016-07-28T07:41:49.895Z,1005.31
2016-07-28T07:43:49.868Z,1005.25
2016-07-28T07:44:49.853Z,1005.31
2016-07-28T07:45:49.839Z,1005.31
2016-07-28T07:46:49.951Z,1005.28
2016-07-28T07:47:49.818Z,1005.26
2016-07-28T07:48:49.796Z,1005.28
2016-07-28T07:49:49.988Z,1005.26
2016-07-28T07:50:49.862Z,1005.27
2016-07-28T07:51:49.755Z,1005.24
2016-07-28T07:52:49.772Z,1005.27
2016-07-28T07:53:49.723Z,1005.31
2016-07-28T07:54:49.709Z,1005.32
2016-07-28T07:55:49.694Z,1005.3
2016-07-28T07:56:49.787Z,1005.29
2016-07-28T07:57:49.785Z,1005.32
2016-07-28T07:58:50.034Z,1005.33
2016-07-28T07:59:49.990Z,1005.32
2016-07-28T08:00:49.930Z,1005.34
2016-07-28T08:01:49.664Z,1005.3
2016-07-28T08:02:49.593Z,1005.3
2016-07-28T08:03:49.579Z,1005.31
2016-07-28T08:04:49.564Z,1005.29
2016-07-28T08:05:49.734Z,1005.31
2016-07-28T08:06:49.784Z,1005.31
2016-07-28T08:07:49.661Z,1005.29
2016-07-28T08:08:49.507Z,1005.3
2016-07-28T08:09:49.566Z,1005.29
2016-07-28T08:10:49.618Z,1005.29
2016-07-28T08:11:49.696Z,1005.33
2016-07-28T08:12:49.556Z,1005.34
2016-07-28T08:13:49.692Z,1005.33
2016-07-28T08:14:49.478Z,1005.36
2016-07-28T08:15:49.408Z,1005.38
2016-07-28T08:16:49.413Z,1005.37
2016-07-28T08:17:49.585Z,1005.37
2016-07-28T08:18:49.574Z,1005.38
2016-07-28T08:19:49.591Z,1005.31
2016-07-28T08:20:49.395Z,1005.32
2016-07-28T08:21:49.385Z,1005.37
2016-07-28T08:22:49.578Z,1005.36
2016-07-28T08:23:49.586Z,1005.35
2016-07-28T08:24:49.392Z,1005.32
2016-07-28T08:25:49.318Z,1005.3
2016-07-28T08:26:49.394Z,1005.33
2016-07-28T08:27:49.549Z,1005.35
2016-07-28T08:28:49.381Z,1005.25
2016-07-28T08:29:49.484Z,1005.36
2016-07-28T08:30:49.368Z,1005.32
2016-07-28T08:31:49.495Z,1005.33
2016-07-28T08:32:49.319Z,1005.32
2016-07-28T08:33:49.177Z,1005.31
2016-07-28T08:34:49.250Z,1005.31
2016-07-28T08:35:49.123Z,1005.28
2016-07-28T08:36:49.112Z,1005.27
2016-07-28T08:37:49.096Z,1005.21
2016-07-28T08:38:49.083Z,1005.28
2016-07-28T08:39:49.263Z,1005.26
2016-07-28T08:40:49.086Z,1005.22
2016-07-28T08:41:49.281Z,1005.24
2016-07-28T08:42:49.333Z,1005.23
2016-07-28T08:43:49.264Z,1005.24
2016-07-28T08:44:49.176Z,1005.24
2016-07-28T08:45:49.067Z,1005.31
2016-07-28T08:46:49.022Z,1005.29
2016-07-28T08:47:48.957Z,1005.3
2016-07-28T08:48:48.955Z,1005.28
2016-07-28T08:49:48.931Z,1005.28
2016-07-28T08:50:48.916Z,1005.25
2016-07-28T08:51:49.162Z,1005.26
2016-07-28T08:52:49.083Z,1005.28
2016-07-28T08:53:49.074Z,1005.26
2016-07-28T08:54:48.927Z,1005.3
2016-07-28T08:55:48.881Z,1005.28
2016-07-28T08:56:49.058Z,1005.25
2016-07-28T08:57:48.983Z,1005.19
2016-07-28T08:58:48.918Z,1005.23
2016-07-28T08:59:48.834Z,1005.25
2016-07-28T09:00:48.782Z,1005.23
2016-07-28T09:01:48.818Z,1005.25
2016-07-28T09:02:48.821Z,1005.29
2016-07-28T09:03:48.828Z,1005.3
2016-07-28T09:04:48.755Z,1005.31
2016-07-28T09:05:48.818Z,1005.29
2016-07-28T09:06:48.862Z,1005.3
2016-07-28T09:07:48.803Z,1005.3
2016-07-28T09:08:48.824Z,1005.31
2016-07-28T09:09:48.723Z,1005.32
2016-07-28T09:10:48.657Z,1005.31
2016-07-28T09:11:48.890Z,1005.33
2016-07-28T09:12:48.632Z,1005.34
2016-07-28T09:13:48.711Z,1005.38
2016-07-28T09:14:48.866Z,1005.38
2016-07-28T09:15:48.682Z,1005.37
2016-07-28T09:16:48.924Z,1005.31
2016-07-28T09:17:48.705Z,1005.35
2016-07-28T09:18:48.711Z,1005.31
2016-07-28T09:19:48.687Z,1005.37
2016-07-28T09:20:48.861Z,1005.39
2016-07-28T09:21:48.713Z,1005.36
2016-07-28T09:22:48.573Z,1005.37
2016-07-28T09:23:48.995Z,1005.37
2016-07-28T09:24:48.616Z,1005.39
2016-07-28T09:25:48.516Z,1005.37
2016-07-28T09:26:48.452Z,1005.42
2016-07-28T09:27:48.652Z,1005.45
2016-07-28T09:28:48.602Z,1005.42
2016-07-28T09:29:48.411Z,1005.37
2016-07-28T09:30:48.399Z,1005.43
2016-07-28T09:31:48.382Z,1005.42
2016-07-28T09:32:48.371Z,1005.35
2016-07-28T09:33:48.514Z,1005.42
2016-07-28T09:34:48.598Z,1005.46
2016-07-28T09:35:48.507Z,1005.4
2016-07-28T09:36:48.574Z,1005.4
2016-07-28T09:37:48.317Z,1005.37
2016-07-28T09:38:48.494Z,1005.37
2016-07-28T09:39:48.359Z,1005.38
2016-07-28T09:40:48.426Z,1005.38
2016-07-28T09:41:48.581Z,1005.35
2016-07-28T09:42:48.320Z,1005.34
2016-07-28T09:43:48.432Z,1005.34
2016-07-28T09:44:48.276Z,1005.33
2016-07-28T09:45:48.182Z,1005.33
2016-07-28T09:46:48.315Z,1005.35
2016-07-28T09:47:48.427Z,1005.29
2016-07-28T09:48:48.225Z,1005.32
2016-07-28T09:49:48.279Z,1005.29
2016-07-28T09:50:48.160Z,1005.34
2016-07-28T09:51:48.426Z,1005.36
2016-07-28T09:52:48.142Z,1005.28
2016-07-28T09:53:48.153Z,1005.29
2016-07-28T09:54:48.282Z,1005.36
2016-07-28T09:55:48.227Z,1005.28
2016-07-28T09:56:48.159Z,1005.31
2016-07-28T09:57:48.133Z,1005.28
2016-07-28T09:58:48.160Z,1005.37
2016-07-28T09:59:48.069Z,1005.32
2016-07-28T10:00:48.024Z,1005.32
2016-07-28T10:01:47.960Z,1005.31
2016-07-28T10:02:47.947Z,1005.3
2016-07-28T10:03:47.932Z,1005.3
2016-07-28T10:04:47.971Z,1005.31
2016-07-28T10:05:47.907Z,1005.26
2016-07-28T10:06:47.889Z,1005.35
2016-07-28T10:07:47.877Z,1005.31
2016-07-28T10:08:47.862Z,1005.31
2016-07-28T10:09:47.848Z,1005.26
2016-07-28T10:10:47.832Z,1005.3
2016-07-28T10:11:47.992Z,1005.27
2016-07-28T10:12:47.935Z,1005.32
2016-07-28T10:13:47.815Z,1005.26
2016-07-28T10:14:47.776Z,1005.29
2016-07-28T10:15:47.959Z,1005.23
2016-07-28T10:16:47.771Z,1005.25
2016-07-28T10:17:47.839Z,1005.25
2016-07-28T10:18:47.720Z,1005.26
2016-07-28T10:19:47.741Z,1005.23
2016-07-28T10:20:47.728Z,1005.26
2016-07-28T10:21:47.679Z,1005.24
2016-07-28T10:22:47.664Z,1005.25
2016-07-28T10:23:48.036Z,1005.23
2016-07-28T10:24:47.637Z,1005.19
2016-07-28T10:25:47.756Z,1005.23
2016-07-28T10:26:47.728Z,1005.17
2016-07-28T10:27:47.908Z,1005.17
2016-07-28T10:28:47.791Z,1005.18
2016-07-28T10:29:47.806Z,1005.16
2016-07-28T10:30:47.789Z,1005.12
2016-07-28T10:31:48.011Z,1005.13
2016-07-28T10:32:47.800Z,1005.12
2016-07-28T10:33:47.833Z,1005.18
2016-07-28T10:34:47.782Z,1005.14
2016-07-28T10:35:47.833Z,1005.16
2016-07-28T10:36:47.754Z,1005.12
2016-07-28T10:37:47.725Z,1005.18
2016-07-28T10:38:47.686Z,1005.12
2016-07-28T10:39:47.728Z,1005.13
2016-07-28T10:40:47.763Z,1005.11
2016-07-28T10:41:47.693Z,1005.11
2016-07-28T10:42:47.687Z,1005.12
2016-07-28T10:43:47.604Z,1005.12
2016-07-28T10:44:47.563Z,1005.1
2016-07-28T10:45:47.694Z,1005.11
2016-07-28T10:46:47.691Z,1005.11
2016-07-28T10:47:47.631Z,1005.13
2016-07-28T10:48:47.665Z,1005.08
2016-07-28T10:49:47.594Z,1005.04
2016-07-28T10:50:47.563Z,1005.06
2016-07-28T10:51:47.587Z,1005.08
2016-07-28T10:52:47.602Z,1005.02
2016-07-28T10:53:47.567Z,1005.06
2016-07-28T10:54:47.572Z,1005.07
2016-07-28T10:55:47.560Z,1005.04
2016-07-28T10:56:47.578Z,1005.05
2016-07-28T10:57:47.532Z,1005.07
2016-07-28T10:58:47.463Z,1005.01
2016-07-28T10:59:47.462Z,1005.02
2016-07-28T11:00:47.517Z,1005
2016-07-28T11:01:47.534Z,1005.02
2016-07-28T11:02:47.433Z,1005
2016-07-28T11:03:47.455Z,1004.98
2016-07-28T11:04:47.471Z,1005.03
2016-07-28T11:05:47.346Z,1005
2016-07-28T11:06:47.377Z,1005.01
2016-07-28T11:07:47.333Z,1004.99
2016-07-28T11:08:47.476Z,1005.03
2016-07-28T11:09:47.314Z,1005.02
2016-07-28T11:10:47.357Z,1005.03
2016-07-28T11:11:47.306Z,1005.05
2016-07-28T11:12:47.334Z,1005.02
2016-07-28T11:13:47.312Z,1005.05
2016-07-28T11:14:47.431Z,1005.07
2016-07-28T11:15:47.393Z,1005.04
2016-07-28T11:16:47.366Z,1005.08
2016-07-28T11:17:47.426Z,1005.07
2016-07-28T11:18:47.562Z,1005.12
2016-07-28T11:19:47.387Z,1005.11
2016-07-28T11:20:47.326Z,1005.06
2016-07-28T11:21:47.343Z,1005.12
2016-07-28T11:22:47.260Z,1005.13
2016-07-28T11:23:47.152Z,1005.07
2016-07-28T11:24:47.111Z,1005.08
2016-07-28T11:25:47.213Z,1005.08
2016-07-28T11:26:47.164Z,1005.11
2016-07-28T11:27:47.266Z,1005.01
2016-07-28T11:28:47.217Z,1005.06
2016-07-28T11:29:47.068Z,1004.97
2016-07-28T11:30:47.032Z,1004.98
2016-07-28T11:31:47.221Z,1004.93
2016-07-28T11:32:47.058Z,1004.95
2016-07-28T11:33:47.073Z,1004.93
2016-07-28T11:34:47.148Z,1004.93
2016-07-28T11:35:47.056Z,1004.9
2016-07-28T11:36:47.107Z,1004.93
2016-07-28T11:37:47.017Z,1004.88
2016-07-28T11:38:47.002Z,1004.87
2016-07-28T11:39:47.067Z,1004.84
2016-07-28T11:40:46.954Z,1004.88
2016-07-28T11:41:47.024Z,1004.85
2016-07-28T11:42:46.953Z,1004.87
2016-07-28T11:43:46.867Z,1004.86
2016-07-28T11:44:46.906Z,1004.84
2016-07-28T11:45:46.851Z,1004.86
2016-07-28T11:46:46.869Z,1004.85
2016-07-28T11:47:46.871Z,1004.86
2016-07-28T11:48:46.868Z,1004.85
2016-07-28T11:49:46.924Z,1004.82
2016-07-28T11:50:46.835Z,1004.81
2016-07-28T11:51:46.797Z,1004.86
2016-07-28T11:52:46.854Z,1004.75
2016-07-28T11:53:46.716Z,1004.79
2016-07-28T11:54:46.886Z,1004.73
2016-07-28T11:55:46.686Z,1004.77
2016-07-28T11:56:46.848Z,1004.73
2016-07-28T11:57:46.742Z,1004.74
2016-07-28T11:58:46.822Z,1004.69
2016-07-28T11:59:46.704Z,1004.7
2016-07-28T12:00:46.792Z,1004.64
2016-07-28T12:01:46.746Z,1004.69
2016-07-28T12:02:46.827Z,1004.66
2016-07-28T12:03:46.687Z,1004.65
2016-07-28T12:04:46.721Z,1004.63
2016-07-28T12:05:46.701Z,1004.64
2016-07-28T12:06:46.687Z,1004.66
2016-07-28T12:07:46.664Z,1004.67
2016-07-28T12:08:46.655Z,1004.69
2016-07-28T12:09:46.595Z,1004.67
2016-07-28T12:10:46.572Z,1004.62
2016-07-28T12:11:46.767Z,1004.62
2016-07-28T12:12:46.508Z,1004.61
2016-07-28T12:14:46.464Z,1004.62
2016-07-28T12:15:46.549Z,1004.59